Alfredo Vásquez Cobo International Airport
SKLT : now visible

Airfield :











YOU CAN JOIN US ON...

 
LOGIN :

Register | Disclaimer

   EN    FR    IT 

 









Legend :    VFR   Marginal VFR   IFR   Intensive IFR   Very Intensive IFR
Visi :
Ceiling :
>= 8 km
>= 3000ft
5 to 8 km
1000 to 3000 ft
1500m to 5 km
500 to 1000 ft
800 to 1500m
200 to 500 ft
< 800m
< 200 ft
Symbols :   Thunderstorms  Fog  Heavy snow  Heavy precipitations  Wind > 20 kt






- Airport Elevation : 277 ft
- IATA code : LET


SKLT - Alfredo Vásquez Cobo International

CURRENT METAR :
  • 250600Z 33003KT 9999 SCT012 BKN080 24/24 A2995

EXPIRED METARs :
  • 250500Z VRB02KT 9999 SCT012 BKN080 24/24 A2998
  • 250400Z 01003KT 9999 SCT012 BKN080 24/24 A3000 RMK LTNG NE

TAF TAF SKLT
Valid from the 25 at 06:00 until the 26 at 06:00 UTC


250430Z 2506/2606 VRB02KT 9999 SCT010 BKN080
TEMPO 2506/2509 5000 DZRA BKN010
PROB40
TEMPO 2518/2522 5000 TSRA BKN012CB TX33/2518Z TN23/2510Z
SKED FIR / South America



MET'MAP, your aeronautical weather chart ! - Copyright ORBIFLY December 2007 - Disclaimer

ORBIFLY MET'MAP TEAM :

Programming & Development : Alexandra Zaïnal
Concept & original design : Baudouin d'Aumeries
Assistance for programming : Marc-Olivier Méhu
Technical & hardware support : Manuel Goepfert

Contact : metmap@orbifly.com




SOURCES & CREDITS :

   NOAA       Earth
Advisory